PASV/SVW METAR and TAF weather

Enter ICAO airport designator
Station Type Date Time Source
PASV METAR 2019/06/17 05:55 UTC NOAA

PASV 170555Z AUTO 24003KT 10SM CLR 13/10 A2970 RMK AO2 RAB0429E0458SHRAB0458E0523 SLP053 P0002 60006 T01340095 10174 20125 55000


Station Type Date Time Source
PASV Decoded METAR 2019/06/17 05:55 UTC NOAA

Sparrevohn Airways Facilities Sector, AK, United States (PASV) 61-06N 155-34W
Jun 17, 2019 - 01:55 AM EDT / 2019.06.17 0555 UTC
Wind: from the WSW (240 degrees) at 3 MPH (3 KT):0
Visibility: 10 mile(s):0
Sky conditions: clear
Precipitation last hour: 0.02 inches
Temperature: 56.1 F (13.4 C)
Dew Point: 49.1 F (9.5 C)
Relative Humidity: 77%
Pressure (altimeter): 29.7 in. Hg (1005 hPa)
Pressure tendency: 0.00 inches (0.0 hPa) lower than three hours ago
ob: PASV 170555Z AUTO 24003KT 10SM CLR 13/10 A2970 RMK AO2 RAB0429E0458SHRAB0458E0523 SLP053 P0002 60006 T01340095 10174 20125 55000
cycle: 6

Station Type Date Time Source
PASV TAF 2012/01/12 14:57 UTC NOAA

TAF
AMD PASV 1214/1320 33010G15KT 4800 -SN BLSN SCT003 SCT110 QNH2984INS
BECMG 1221/1222 VRB06KT 9999 NSW FEW010 SCT110 QNH3000INS LIMITED METWATCH TM25/1300Z TM37/1315Z
AMD 121453

Example: see airport list